sensor_id;sensor_type;location;lat;lon;timestamp;P1;durP1;ratioP1;P2;durP2;ratioP2
51216;SDS011;37283;49.760;8.648;2024-02-28T00:00:57;18.48;;;15.15;;
51216;SDS011;37283;49.760;8.648;2024-02-28T00:03:24;17.70;;;14.82;;
51216;SDS011;37283;49.760;8.648;2024-02-28T00:05:50;19.42;;;14.38;;
51216;SDS011;37283;49.760;8.648;2024-02-28T00:08:17;21.95;;;16.75;;
51216;SDS011;37283;49.760;8.648;2024-02-28T00:10:45;22.77;;;17.75;;
51216;SDS011;37283;49.760;8.648;2024-02-28T00:13:12;24.05;;;18.25;;
51216;SDS011;37283;49.760;8.648;2024-02-28T00:15:38;19.42;;;16.25;;
51216;SDS011;37283;49.760;8.648;2024-02-28T00:18:05;20.60;;;16.40;;
51216;SDS011;37283;49.760;8.648;2024-02-28T00:20:32;19.67;;;15.38;;
51216;SDS011;37283;49.760;8.648;2024-02-28T00:22:58;20.10;;;15.77;;
51216;SDS011;37283;49.760;8.648;2024-02-28T00:25:25;17.42;;;14.85;;
51216;SDS011;37283;49.760;8.648;2024-02-28T00:27:52;17.92;;;15.40;;
51216;SDS011;37283;49.760;8.648;2024-02-28T00:30:18;21.92;;;16.80;;
51216;SDS011;37283;49.760;8.648;2024-02-28T00:32:46;20.23;;;16.65;;
51216;SDS011;37283;49.760;8.648;2024-02-28T00:35:12;23.48;;;17.65;;
51216;SDS011;37283;49.760;8.648;2024-02-28T00:37:39;21.73;;;17.70;;
51216;SDS011;37283;49.760;8.648;2024-02-28T00:40:07;24.75;;;17.58;;
51216;SDS011;37283;49.760;8.648;2024-02-28T00:42:34;21.60;;;17.57;;
51216;SDS011;37283;49.760;8.648;2024-02-28T00:45:01;21.98;;;16.85;;
51216;SDS011;37283;49.760;8.648;2024-02-28T00:47:29;22.23;;;15.95;;
51216;SDS011;37283;49.760;8.648;2024-02-28T00:49:55;23.67;;;17.85;;
51216;SDS011;37283;49.760;8.648;2024-02-28T00:52:22;20.38;;;16.45;;
51216;SDS011;37283;49.760;8.648;2024-02-28T00:54:50;21.77;;;17.38;;
51216;SDS011;37283;49.760;8.648;2024-02-28T00:57:17;22.33;;;17.73;;
51216;SDS011;37283;49.760;8.648;2024-02-28T00:59:44;17.92;;;15.63;;
51216;SDS011;37283;49.760;8.648;2024-02-28T01:02:11;20.95;;;16.60;;
51216;SDS011;37283;49.760;8.648;2024-02-28T01:04:39;22.30;;;16.08;;
51216;SDS011;37283;49.760;8.648;2024-02-28T01:07:05;19.25;;;15.70;;
51216;SDS011;37283;49.760;8.648;2024-02-28T01:09:32;23.42;;;15.23;;
51216;SDS011;37283;49.760;8.648;2024-02-28T01:11:59;16.85;;;13.70;;
51216;SDS011;37283;49.760;8.648;2024-02-28T01:14:26;20.95;;;16.13;;
51216;SDS011;37283;49.760;8.648;2024-02-28T01:16:52;19.48;;;14.90;;
51216;SDS011;37283;49.760;8.648;2024-02-28T01:19:19;22.08;;;16.15;;
51216;SDS011;37283;49.760;8.648;2024-02-28T01:21:45;20.23;;;16.33;;
51216;SDS011;37283;49.760;8.648;2024-02-28T01:24:12;20.50;;;15.90;;
51216;SDS011;37283;49.760;8.648;2024-02-28T01:26:39;22.45;;;17.15;;
51216;SDS011;37283;49.760;8.648;2024-02-28T01:29:06;22.10;;;17.75;;
51216;SDS011;37283;49.760;8.648;2024-02-28T01:31:33;21.80;;;17.17;;
51216;SDS011;37283;49.760;8.648;2024-02-28T01:33:59;22.83;;;17.75;;
51216;SDS011;37283;49.760;8.648;2024-02-28T01:36:26;23.27;;;18.35;;
51216;SDS011;37283;49.760;8.648;2024-02-28T01:38:53;20.45;;;16.25;;
51216;SDS011;37283;49.760;8.648;2024-02-28T01:41:20;20.67;;;16.80;;
51216;SDS011;37283;49.760;8.648;2024-02-28T01:43:47;21.65;;;17.27;;
51216;SDS011;37283;49.760;8.648;2024-02-28T01:46:20;20.52;;;17.13;;
51216;SDS011;37283;49.760;8.648;2024-02-28T01:48:53;21.45;;;15.88;;
51216;SDS011;37283;49.760;8.648;2024-02-28T01:51:25;19.70;;;15.18;;
51216;SDS011;37283;49.760;8.648;2024-02-28T01:53:55;20.20;;;16.27;;
51216;SDS011;37283;49.760;8.648;2024-02-28T01:56:22;22.52;;;16.95;;
51216;SDS011;37283;49.760;8.648;2024-02-28T01:58:50;22.95;;;17.15;;
51216;SDS011;37283;49.760;8.648;2024-02-28T02:01:17;20.27;;;15.82;;
51216;SDS011;37283;49.760;8.648;2024-02-28T02:03:50;23.35;;;18.20;;
51216;SDS011;37283;49.760;8.648;2024-02-28T02:06:16;24.35;;;18.52;;
51216;SDS011;37283;49.760;8.648;2024-02-28T02:08:44;22.77;;;18.60;;
51216;SDS011;37283;49.760;8.648;2024-02-28T02:11:10;22.48;;;18.30;;
51216;SDS011;37283;49.760;8.648;2024-02-28T02:13:47;23.05;;;18.27;;
51216;SDS011;37283;49.760;8.648;2024-02-28T02:16:14;21.15;;;17.27;;
51216;SDS011;37283;49.760;8.648;2024-02-28T02:18:41;22.98;;;18.88;;
51216;SDS011;37283;49.760;8.648;2024-02-28T02:21:07;23.90;;;18.50;;
51216;SDS011;37283;49.760;8.648;2024-02-28T02:23:35;26.08;;;20.63;;
51216;SDS011;37283;49.760;8.648;2024-02-28T02:26:05;27.73;;;19.27;;
51216;SDS011;37283;49.760;8.648;2024-02-28T02:28:32;25.50;;;19.88;;
51216;SDS011;37283;49.760;8.648;2024-02-28T02:31:00;26.13;;;20.05;;
51216;SDS011;37283;49.760;8.648;2024-02-28T02:33:27;28.92;;;22.08;;
51216;SDS011;37283;49.760;8.648;2024-02-28T02:35:53;30.40;;;24.67;;
51216;SDS011;37283;49.760;8.648;2024-02-28T02:38:20;31.27;;;24.25;;
51216;SDS011;37283;49.760;8.648;2024-02-28T02:40:50;33.25;;;24.17;;
51216;SDS011;37283;49.760;8.648;2024-02-28T02:43:17;32.90;;;24.90;;
51216;SDS011;37283;49.760;8.648;2024-02-28T02:45:43;30.38;;;23.58;;
51216;SDS011;37283;49.760;8.648;2024-02-28T02:48:10;29.63;;;23.20;;
51216;SDS011;37283;49.760;8.648;2024-02-28T02:50:37;29.23;;;22.48;;
51216;SDS011;37283;49.760;8.648;2024-02-28T02:53:04;28.25;;;22.02;;
51216;SDS011;37283;49.760;8.648;2024-02-28T02:55:30;28.88;;;21.85;;
51216;SDS011;37283;49.760;8.648;2024-02-28T02:57:58;31.45;;;22.85;;
51216;SDS011;37283;49.760;8.648;2024-02-28T03:00:24;30.30;;;21.77;;
51216;SDS011;37283;49.760;8.648;2024-02-28T03:02:51;29.15;;;21.83;;
51216;SDS011;37283;49.760;8.648;2024-02-28T03:05:17;33.17;;;21.88;;
51216;SDS011;37283;49.760;8.648;2024-02-28T03:07:44;30.20;;;21.45;;
51216;SDS011;37283;49.760;8.648;2024-02-28T03:10:10;26.70;;;21.30;;
51216;SDS011;37283;49.760;8.648;2024-02-28T03:12:37;33.72;;;24.80;;
51216;SDS011;37283;49.760;8.648;2024-02-28T03:15:05;34.83;;;25.05;;
51216;SDS011;37283;49.760;8.648;2024-02-28T03:17:31;34.33;;;24.65;;
51216;SDS011;37283;49.760;8.648;2024-02-28T03:19:58;32.45;;;24.25;;
51216;SDS011;37283;49.760;8.648;2024-02-28T03:22:24;29.98;;;22.50;;
51216;SDS011;37283;49.760;8.648;2024-02-28T03:24:51;33.83;;;23.50;;
51216;SDS011;37283;49.760;8.648;2024-02-28T03:27:18;27.90;;;22.05;;
51216;SDS011;37283;49.760;8.648;2024-02-28T03:29:44;29.85;;;22.33;;
51216;SDS011;37283;49.760;8.648;2024-02-28T03:32:11;30.30;;;22.92;;
51216;SDS011;37283;49.760;8.648;2024-02-28T03:34:37;30.95;;;21.95;;
51216;SDS011;37283;49.760;8.648;2024-02-28T03:37:04;29.65;;;22.83;;
51216;SDS011;37283;49.760;8.648;2024-02-28T03:39:30;30.70;;;22.92;;
51216;SDS011;37283;49.760;8.648;2024-02-28T03:41:57;34.38;;;24.60;;
51216;SDS011;37283;49.760;8.648;2024-02-28T03:44:24;31.45;;;24.20;;
51216;SDS011;37283;49.760;8.648;2024-02-28T03:46:52;35.78;;;24.77;;
51216;SDS011;37283;49.760;8.648;2024-02-28T03:49:18;32.20;;;24.98;;
51216;SDS011;37283;49.760;8.648;2024-02-28T03:51:45;30.45;;;23.98;;
51216;SDS011;37283;49.760;8.648;2024-02-28T03:54:12;31.67;;;22.73;;
51216;SDS011;37283;49.760;8.648;2024-02-28T03:56:38;30.70;;;21.88;;
51216;SDS011;37283;49.760;8.648;2024-02-28T03:59:05;27.35;;;21.80;;
51216;SDS011;37283;49.760;8.648;2024-02-28T04:01:31;32.25;;;23.88;;
51216;SDS011;37283;49.760;8.648;2024-02-28T04:03:58;31.23;;;24.10;;
51216;SDS011;37283;49.760;8.648;2024-02-28T04:06:25;32.65;;;23.48;;
51216;SDS011;37283;49.760;8.648;2024-02-28T04:08:51;35.88;;;24.55;;
51216;SDS011;37283;49.760;8.648;2024-02-28T04:11:18;33.85;;;24.52;;
51216;SDS011;37283;49.760;8.648;2024-02-28T04:13:46;31.85;;;23.40;;
51216;SDS011;37283;49.760;8.648;2024-02-28T04:16:12;31.23;;;23.50;;
51216;SDS011;37283;49.760;8.648;2024-02-28T04:18:39;32.00;;;24.85;;
51216;SDS011;37283;49.760;8.648;2024-02-28T04:21:05;35.47;;;26.05;;
51216;SDS011;37283;49.760;8.648;2024-02-28T04:23:32;33.40;;;24.45;;
51216;SDS011;37283;49.760;8.648;2024-02-28T04:25:58;31.75;;;23.88;;
51216;SDS011;37283;49.760;8.648;2024-02-28T04:28:25;30.20;;;22.75;;
51216;SDS011;37283;49.760;8.648;2024-02-28T04:30:52;33.67;;;24.95;;
51216;SDS011;37283;49.760;8.648;2024-02-28T04:33:18;33.25;;;24.10;;
51216;SDS011;37283;49.760;8.648;2024-02-28T04:35:45;34.10;;;25.52;;
51216;SDS011;37283;49.760;8.648;2024-02-28T04:38:12;35.80;;;26.50;;
51216;SDS011;37283;49.760;8.648;2024-02-28T04:40:38;38.67;;;27.58;;
51216;SDS011;37283;49.760;8.648;2024-02-28T04:43:05;38.45;;;26.98;;
51216;SDS011;37283;49.760;8.648;2024-02-28T04:45:31;40.00;;;28.10;;
51216;SDS011;37283;49.760;8.648;2024-02-28T04:47:58;40.60;;;29.45;;
51216;SDS011;37283;49.760;8.648;2024-02-28T04:50:25;35.40;;;27.08;;
51216;SDS011;37283;49.760;8.648;2024-02-28T04:52:51;37.03;;;26.92;;
51216;SDS011;37283;49.760;8.648;2024-02-28T04:55:18;34.70;;;26.52;;
51216;SDS011;37283;49.760;8.648;2024-02-28T04:57:44;37.08;;;27.25;;
51216;SDS011;37283;49.760;8.648;2024-02-28T05:00:11;38.00;;;27.27;;
51216;SDS011;37283;49.760;8.648;2024-02-28T05:02:38;39.28;;;27.35;;
51216;SDS011;37283;49.760;8.648;2024-02-28T05:05:05;35.90;;;27.55;;
51216;SDS011;37283;49.760;8.648;2024-02-28T05:07:32;37.00;;;27.10;;
51216;SDS011;37283;49.760;8.648;2024-02-28T05:09:58;35.03;;;27.30;;
51216;SDS011;37283;49.760;8.648;2024-02-28T05:12:25;38.38;;;27.27;;
51216;SDS011;37283;49.760;8.648;2024-02-28T05:14:51;37.80;;;26.92;;
51216;SDS011;37283;49.760;8.648;2024-02-28T05:17:20;35.60;;;26.80;;
51216;SDS011;37283;49.760;8.648;2024-02-28T05:19:47;35.92;;;25.95;;
51216;SDS011;37283;49.760;8.648;2024-02-28T05:22:13;36.83;;;25.63;;
51216;SDS011;37283;49.760;8.648;2024-02-28T05:24:40;41.15;;;27.13;;
51216;SDS011;37283;49.760;8.648;2024-02-28T05:27:09;38.15;;;26.83;;
51216;SDS011;37283;49.760;8.648;2024-02-28T05:29:36;37.25;;;26.42;;
51216;SDS011;37283;49.760;8.648;2024-02-28T05:32:03;34.60;;;24.77;;
51216;SDS011;37283;49.760;8.648;2024-02-28T05:34:30;32.38;;;24.50;;
51216;SDS011;37283;49.760;8.648;2024-02-28T05:36:56;33.47;;;24.02;;
51216;SDS011;37283;49.760;8.648;2024-02-28T05:39:23;34.42;;;26.10;;
51216;SDS011;37283;49.760;8.648;2024-02-28T05:41:50;36.75;;;27.20;;
51216;SDS011;37283;49.760;8.648;2024-02-28T05:44:17;40.65;;;27.50;;
51216;SDS011;37283;49.760;8.648;2024-02-28T05:46:43;41.38;;;29.88;;
51216;SDS011;37283;49.760;8.648;2024-02-28T05:49:10;41.22;;;28.70;;
51216;SDS011;37283;49.760;8.648;2024-02-28T05:51:36;42.85;;;30.33;;
51216;SDS011;37283;49.760;8.648;2024-02-28T05:54:03;42.70;;;29.48;;
51216;SDS011;37283;49.760;8.648;2024-02-28T05:56:29;40.22;;;28.60;;
51216;SDS011;37283;49.760;8.648;2024-02-28T05:58:56;41.38;;;29.70;;
51216;SDS011;37283;49.760;8.648;2024-02-28T06:01:23;45.88;;;30.98;;
51216;SDS011;37283;49.760;8.648;2024-02-28T06:03:49;42.67;;;29.95;;
51216;SDS011;37283;49.760;8.648;2024-02-28T06:06:17;43.55;;;30.73;;
51216;SDS011;37283;49.760;8.648;2024-02-28T06:08:43;47.55;;;31.67;;
51216;SDS011;37283;49.760;8.648;2024-02-28T06:11:10;47.67;;;31.20;;
51216;SDS011;37283;49.760;8.648;2024-02-28T06:13:37;44.30;;;31.67;;
51216;SDS011;37283;49.760;8.648;2024-02-28T06:16:06;46.83;;;31.23;;
51216;SDS011;37283;49.760;8.648;2024-02-28T06:18:33;45.50;;;31.27;;
51216;SDS011;37283;49.760;8.648;2024-02-28T06:21:00;50.28;;;30.92;;
51216;SDS011;37283;49.760;8.648;2024-02-28T06:23:27;50.88;;;32.75;;
51216;SDS011;37283;49.760;8.648;2024-02-28T06:25:58;44.78;;;31.00;;
51216;SDS011;37283;49.760;8.648;2024-02-28T06:28:25;50.10;;;33.22;;
51216;SDS011;37283;49.760;8.648;2024-02-28T06:30:52;47.47;;;32.15;;
51216;SDS011;37283;49.760;8.648;2024-02-28T06:33:18;52.38;;;33.00;;
51216;SDS011;37283;49.760;8.648;2024-02-28T06:35:45;45.65;;;30.27;;
51216;SDS011;37283;49.760;8.648;2024-02-28T06:38:12;46.10;;;30.27;;
51216;SDS011;37283;49.760;8.648;2024-02-28T06:40:38;45.05;;;29.50;;
51216;SDS011;37283;49.760;8.648;2024-02-28T06:43:05;44.13;;;30.63;;
51216;SDS011;37283;49.760;8.648;2024-02-28T06:45:32;46.90;;;32.55;;
51216;SDS011;37283;49.760;8.648;2024-02-28T06:47:59;43.35;;;30.42;;
51216;SDS011;37283;49.760;8.648;2024-02-28T06:50:25;44.72;;;30.85;;
51216;SDS011;37283;49.760;8.648;2024-02-28T06:52:52;44.47;;;29.85;;
51216;SDS011;37283;49.760;8.648;2024-02-28T06:55:19;39.85;;;28.60;;
51216;SDS011;37283;49.760;8.648;2024-02-28T06:57:46;44.45;;;30.13;;
51216;SDS011;37283;49.760;8.648;2024-02-28T07:00:13;41.22;;;29.10;;
51216;SDS011;37283;49.760;8.648;2024-02-28T07:02:41;39.38;;;28.65;;
51216;SDS011;37283;49.760;8.648;2024-02-28T07:05:08;42.65;;;28.98;;
51216;SDS011;37283;49.760;8.648;2024-02-28T07:07:34;45.28;;;31.08;;
51216;SDS011;37283;49.760;8.648;2024-02-28T07:10:02;43.95;;;30.52;;
51216;SDS011;37283;49.760;8.648;2024-02-28T07:12:30;40.35;;;29.40;;
51216;SDS011;37283;49.760;8.648;2024-02-28T07:14:57;39.40;;;28.05;;
51216;SDS011;37283;49.760;8.648;2024-02-28T07:17:24;42.33;;;29.00;;
51216;SDS011;37283;49.760;8.648;2024-02-28T07:19:50;41.20;;;28.67;;
51216;SDS011;37283;49.760;8.648;2024-02-28T07:22:17;43.20;;;29.95;;
51216;SDS011;37283;49.760;8.648;2024-02-28T07:24:44;41.70;;;29.63;;
51216;SDS011;37283;49.760;8.648;2024-02-28T07:27:11;37.80;;;26.67;;
51216;SDS011;37283;49.760;8.648;2024-02-28T07:29:37;40.03;;;28.27;;
51216;SDS011;37283;49.760;8.648;2024-02-28T07:32:04;40.40;;;28.95;;
51216;SDS011;37283;49.760;8.648;2024-02-28T07:34:31;37.03;;;27.15;;
51216;SDS011;37283;49.760;8.648;2024-02-28T07:36:57;40.63;;;28.48;;
51216;SDS011;37283;49.760;8.648;2024-02-28T07:39:24;40.13;;;27.60;;
51216;SDS011;37283;49.760;8.648;2024-02-28T07:41:51;37.20;;;28.08;;
51216;SDS011;37283;49.760;8.648;2024-02-28T07:44:21;35.28;;;26.75;;
51216;SDS011;37283;49.760;8.648;2024-02-28T07:46:48;38.50;;;26.60;;
51216;SDS011;37283;49.760;8.648;2024-02-28T07:49:16;33.42;;;25.13;;
51216;SDS011;37283;49.760;8.648;2024-02-28T07:51:44;37.45;;;27.00;;
51216;SDS011;37283;49.760;8.648;2024-02-28T07:54:11;38.42;;;28.33;;
51216;SDS011;37283;49.760;8.648;2024-02-28T07:56:37;38.22;;;28.25;;
51216;SDS011;37283;49.760;8.648;2024-02-28T07:59:04;41.00;;;29.75;;
51216;SDS011;37283;49.760;8.648;2024-02-28T08:01:30;40.53;;;28.88;;
51216;SDS011;37283;49.760;8.648;2024-02-28T08:03:58;36.85;;;28.60;;
51216;SDS011;37283;49.760;8.648;2024-02-28T08:06:26;40.00;;;29.17;;
51216;SDS011;37283;49.760;8.648;2024-02-28T08:08:52;39.30;;;27.63;;
51216;SDS011;37283;49.760;8.648;2024-02-28T08:11:19;38.45;;;29.60;;
51216;SDS011;37283;49.760;8.648;2024-02-28T08:13:45;39.17;;;29.05;;
51216;SDS011;37283;49.760;8.648;2024-02-28T08:16:12;35.63;;;27.83;;
51216;SDS011;37283;49.760;8.648;2024-02-28T08:18:39;42.35;;;30.35;;
51216;SDS011;37283;49.760;8.648;2024-02-28T08:21:06;38.33;;;27.95;;
51216;SDS011;37283;49.760;8.648;2024-02-28T08:23:32;38.03;;;26.15;;
51216;SDS011;37283;49.760;8.648;2024-02-28T08:25:59;39.03;;;29.30;;
51216;SDS011;37283;49.760;8.648;2024-02-28T08:28:25;41.42;;;29.17;;
51216;SDS011;37283;49.760;8.648;2024-02-28T08:30:52;38.25;;;27.95;;
51216;SDS011;37283;49.760;8.648;2024-02-28T08:33:19;37.17;;;27.58;;
51216;SDS011;37283;49.760;8.648;2024-02-28T08:35:49;36.92;;;27.73;;
51216;SDS011;37283;49.760;8.648;2024-02-28T08:38:17;41.92;;;31.27;;
51216;SDS011;37283;49.760;8.648;2024-02-28T08:40:44;41.72;;;30.13;;
51216;SDS011;37283;49.760;8.648;2024-02-28T08:43:11;38.25;;;28.13;;
51216;SDS011;37283;49.760;8.648;2024-02-28T08:45:38;38.47;;;27.42;;
51216;SDS011;37283;49.760;8.648;2024-02-28T08:48:05;38.25;;;26.50;;
51216;SDS011;37283;49.760;8.648;2024-02-28T08:50:33;35.60;;;27.67;;
51216;SDS011;37283;49.760;8.648;2024-02-28T08:52:59;36.53;;;28.73;;
51216;SDS011;37283;49.760;8.648;2024-02-28T08:55:26;41.17;;;28.30;;
51216;SDS011;37283;49.760;8.648;2024-02-28T08:57:54;35.72;;;27.17;;
51216;SDS011;37283;49.760;8.648;2024-02-28T09:00:21;37.95;;;28.13;;
51216;SDS011;37283;49.760;8.648;2024-02-28T09:02:48;37.00;;;28.02;;
51216;SDS011;37283;49.760;8.648;2024-02-28T09:05:15;34.65;;;26.58;;
51216;SDS011;37283;49.760;8.648;2024-02-28T09:07:42;36.83;;;27.88;;
51216;SDS011;37283;49.760;8.648;2024-02-28T09:10:08;37.63;;;26.45;;
51216;SDS011;37283;49.760;8.648;2024-02-28T09:12:35;37.28;;;27.85;;
51216;SDS011;37283;49.760;8.648;2024-02-28T09:15:02;35.75;;;26.75;;
51216;SDS011;37283;49.760;8.648;2024-02-28T09:17:29;34.72;;;26.70;;
51216;SDS011;37283;49.760;8.648;2024-02-28T09:19:55;39.75;;;29.17;;
51216;SDS011;37283;49.760;8.648;2024-02-28T09:22:22;37.28;;;27.55;;
51216;SDS011;37283;49.760;8.648;2024-02-28T09:24:50;40.03;;;26.88;;
51216;SDS011;37283;49.760;8.648;2024-02-28T09:27:16;35.28;;;26.40;;
51216;SDS011;37283;49.760;8.648;2024-02-28T09:29:44;36.67;;;26.52;;
51216;SDS011;37283;49.760;8.648;2024-02-28T09:32:11;33.40;;;25.10;;
51216;SDS011;37283;49.760;8.648;2024-02-28T09:34:37;33.33;;;25.40;;
51216;SDS011;37283;49.760;8.648;2024-02-28T09:37:04;35.15;;;26.10;;
51216;SDS011;37283;49.760;8.648;2024-02-28T09:39:31;33.65;;;26.10;;
51216;SDS011;37283;49.760;8.648;2024-02-28T09:41:58;31.13;;;24.48;;
51216;SDS011;37283;49.760;8.648;2024-02-28T09:44:24;31.67;;;24.60;;
51216;SDS011;37283;49.760;8.648;2024-02-28T09:46:52;32.88;;;25.02;;
51216;SDS011;37283;49.760;8.648;2024-02-28T09:49:19;34.58;;;24.35;;
51216;SDS011;37283;49.760;8.648;2024-02-28T09:51:47;31.38;;;23.58;;
51216;SDS011;37283;49.760;8.648;2024-02-28T09:54:16;28.55;;;22.42;;
51216;SDS011;37283;49.760;8.648;2024-02-28T09:56:43;32.60;;;23.95;;
51216;SDS011;37283;49.760;8.648;2024-02-28T09:59:10;30.27;;;23.77;;
51216;SDS011;37283;49.760;8.648;2024-02-28T10:01:41;31.27;;;23.80;;
51216;SDS011;37283;49.760;8.648;2024-02-28T10:04:10;27.60;;;21.90;;
51216;SDS011;37283;49.760;8.648;2024-02-28T10:06:39;28.33;;;22.83;;
51216;SDS011;37283;49.760;8.648;2024-02-28T10:09:06;30.05;;;22.83;;
51216;SDS011;37283;49.760;8.648;2024-02-28T10:11:33;29.88;;;23.15;;
51216;SDS011;37283;49.760;8.648;2024-02-28T10:14:02;29.47;;;23.13;;
51216;SDS011;37283;49.760;8.648;2024-02-28T10:16:29;29.30;;;23.05;;
51216;SDS011;37283;49.760;8.648;2024-02-28T10:18:55;31.55;;;24.20;;
51216;SDS011;37283;49.760;8.648;2024-02-28T10:21:22;29.73;;;23.65;;
51216;SDS011;37283;49.760;8.648;2024-02-28T10:23:50;28.20;;;22.42;;
51216;SDS011;37283;49.760;8.648;2024-02-28T10:26:17;28.52;;;21.98;;
51216;SDS011;37283;49.760;8.648;2024-02-28T10:28:43;26.33;;;20.45;;
51216;SDS011;37283;49.760;8.648;2024-02-28T10:31:11;24.48;;;19.45;;
51216;SDS011;37283;49.760;8.648;2024-02-28T10:33:41;24.50;;;20.45;;
51216;SDS011;37283;49.760;8.648;2024-02-28T10:38:34;25.98;;;19.95;;
51216;SDS011;37283;49.760;8.648;2024-02-28T10:41:02;23.17;;;18.35;;
51216;SDS011;37283;49.760;8.648;2024-02-28T10:43:29;21.90;;;18.70;;
51216;SDS011;37283;49.760;8.648;2024-02-28T10:46:00;25.60;;;19.60;;
51216;SDS011;37283;49.760;8.648;2024-02-28T10:48:29;25.65;;;18.67;;
51216;SDS011;37283;49.760;8.648;2024-02-28T10:50:56;26.33;;;20.52;;
51216;SDS011;37283;49.760;8.648;2024-02-28T10:53:40;24.15;;;18.95;;
51216;SDS011;37283;49.760;8.648;2024-02-28T10:56:11;24.15;;;18.85;;
51216;SDS011;37283;49.760;8.648;2024-02-28T10:58:41;22.10;;;18.15;;
51216;SDS011;37283;49.760;8.648;2024-02-28T11:01:13;20.58;;;17.58;;
51216;SDS011;37283;49.760;8.648;2024-02-28T11:03:41;21.90;;;17.70;;
51216;SDS011;37283;49.760;8.648;2024-02-28T11:06:17;23.15;;;18.20;;
51216;SDS011;37283;49.760;8.648;2024-02-28T11:08:45;20.73;;;17.27;;
51216;SDS011;37283;49.760;8.648;2024-02-28T11:11:14;21.00;;;16.92;;
51216;SDS011;37283;49.760;8.648;2024-02-28T11:13:54;23.00;;;17.30;;
51216;SDS011;37283;49.760;8.648;2024-02-28T11:16:28;20.88;;;16.20;;
51216;SDS011;37283;49.760;8.648;2024-02-28T11:18:56;24.70;;;17.10;;
51216;SDS011;37283;49.760;8.648;2024-02-28T11:21:23;20.13;;;16.33;;
51216;SDS011;37283;49.760;8.648;2024-02-28T11:24:00;19.70;;;17.27;;
51216;SDS011;37283;49.760;8.648;2024-02-28T11:26:27;19.42;;;15.98;;
51216;SDS011;37283;49.760;8.648;2024-02-28T11:28:57;19.45;;;16.25;;
51216;SDS011;37283;49.760;8.648;2024-02-28T11:31:24;17.23;;;14.70;;
51216;SDS011;37283;49.760;8.648;2024-02-28T11:33:50;17.50;;;15.32;;
51216;SDS011;37283;49.760;8.648;2024-02-28T11:36:17;19.38;;;15.70;;
51216;SDS011;37283;49.760;8.648;2024-02-28T11:38:43;18.40;;;14.45;;
51216;SDS011;37283;49.760;8.648;2024-02-28T11:41:10;15.98;;;13.00;;
51216;SDS011;37283;49.760;8.648;2024-02-28T11:43:37;14.82;;;12.95;;
51216;SDS011;37283;49.760;8.648;2024-02-28T11:46:17;16.10;;;13.52;;
51216;SDS011;37283;49.760;8.648;2024-02-28T11:48:44;15.57;;;13.18;;
51216;SDS011;37283;49.760;8.648;2024-02-28T11:51:11;17.02;;;13.48;;
51216;SDS011;37283;49.760;8.648;2024-02-28T11:53:38;15.77;;;13.15;;
51216;SDS011;37283;49.760;8.648;2024-02-28T11:56:05;15.27;;;11.57;;
51216;SDS011;37283;49.760;8.648;2024-02-28T11:58:31;13.32;;;11.60;;
51216;SDS011;37283;49.760;8.648;2024-02-28T12:00:58;13.82;;;11.18;;
51216;SDS011;37283;49.760;8.648;2024-02-28T12:03:25;13.48;;;10.52;;
51216;SDS011;37283;49.760;8.648;2024-02-28T12:05:54;12.80;;;10.50;;
51216;SDS011;37283;49.760;8.648;2024-02-28T12:08:21;12.13;;;10.10;;
51216;SDS011;37283;49.760;8.648;2024-02-28T12:10:50;12.43;;;10.20;;
51216;SDS011;37283;49.760;8.648;2024-02-28T12:13:17;11.68;;;9.40;;
51216;SDS011;37283;49.760;8.648;2024-02-28T12:15:44;11.38;;;9.45;;
51216;SDS011;37283;49.760;8.648;2024-02-28T12:18:11;12.15;;;9.90;;
51216;SDS011;37283;49.760;8.648;2024-02-28T12:20:41;13.88;;;9.73;;
51216;SDS011;37283;49.760;8.648;2024-02-28T12:23:08;12.02;;;8.77;;
51216;SDS011;37283;49.760;8.648;2024-02-28T12:25:35;12.13;;;9.63;;
51216;SDS011;37283;49.760;8.648;2024-02-28T12:28:02;12.88;;;10.27;;
51216;SDS011;37283;49.760;8.648;2024-02-28T12:30:29;11.82;;;10.48;;
51216;SDS011;37283;49.760;8.648;2024-02-28T12:32:55;17.60;;;15.07;;
51216;SDS011;37283;49.760;8.648;2024-02-28T12:35:22;20.05;;;15.80;;
51216;SDS011;37283;49.760;8.648;2024-02-28T12:37:49;17.15;;;14.10;;
51216;SDS011;37283;49.760;8.648;2024-02-28T12:40:16;16.67;;;14.15;;
51216;SDS011;37283;49.760;8.648;2024-02-28T12:42:43;17.38;;;13.70;;
51216;SDS011;37283;49.760;8.648;2024-02-28T12:45:10;21.55;;;17.15;;
51216;SDS011;37283;49.760;8.648;2024-02-28T12:47:37;20.63;;;17.65;;
51216;SDS011;37283;49.760;8.648;2024-02-28T12:50:05;21.60;;;16.60;;
51216;SDS011;37283;49.760;8.648;2024-02-28T12:52:33;17.65;;;15.80;;
51216;SDS011;37283;49.760;8.648;2024-02-28T12:55:00;19.30;;;16.52;;
51216;SDS011;37283;49.760;8.648;2024-02-28T12:57:27;19.83;;;16.77;;
51216;SDS011;37283;49.760;8.648;2024-02-28T12:59:53;19.98;;;16.33;;
51216;SDS011;37283;49.760;8.648;2024-02-28T13:02:20;19.17;;;15.57;;
51216;SDS011;37283;49.760;8.648;2024-02-28T13:04:47;17.95;;;16.05;;
51216;SDS011;37283;49.760;8.648;2024-02-28T13:07:15;17.17;;;14.88;;
51216;SDS011;37283;49.760;8.648;2024-02-28T13:09:42;19.65;;;15.57;;
51216;SDS011;37283;49.760;8.648;2024-02-28T13:12:09;16.88;;;14.82;;
51216;SDS011;37283;49.760;8.648;2024-02-28T13:14:35;17.40;;;15.48;;
51216;SDS011;37283;49.760;8.648;2024-02-28T13:17:02;16.65;;;14.82;;
51216;SDS011;37283;49.760;8.648;2024-02-28T13:19:30;17.67;;;14.90;;
51216;SDS011;37283;49.760;8.648;2024-02-28T13:21:57;16.67;;;14.43;;
51216;SDS011;37283;49.760;8.648;2024-02-28T13:24:24;18.33;;;14.63;;
51216;SDS011;37283;49.760;8.648;2024-02-28T13:26:50;17.73;;;15.07;;
51216;SDS011;37283;49.760;8.648;2024-02-28T13:29:17;16.67;;;14.25;;
51216;SDS011;37283;49.760;8.648;2024-02-28T13:31:44;14.63;;;12.55;;
51216;SDS011;37283;49.760;8.648;2024-02-28T13:34:10;15.50;;;13.32;;
51216;SDS011;37283;49.760;8.648;2024-02-28T13:36:37;15.80;;;12.50;;
51216;SDS011;37283;49.760;8.648;2024-02-28T13:39:09;16.20;;;13.10;;
51216;SDS011;37283;49.760;8.648;2024-02-28T13:41:39;14.35;;;12.77;;
51216;SDS011;37283;49.760;8.648;2024-02-28T13:44:05;14.55;;;12.20;;
51216;SDS011;37283;49.760;8.648;2024-02-28T13:46:32;14.20;;;11.15;;
51216;SDS011;37283;49.760;8.648;2024-02-28T13:48:59;13.48;;;10.85;;
51216;SDS011;37283;49.760;8.648;2024-02-28T13:51:25;14.13;;;10.88;;
51216;SDS011;37283;49.760;8.648;2024-02-28T13:53:52;14.77;;;11.48;;
51216;SDS011;37283;49.760;8.648;2024-02-28T13:56:20;14.43;;;10.43;;
51216;SDS011;37283;49.760;8.648;2024-02-28T13:58:47;13.38;;;11.20;;
51216;SDS011;37283;49.760;8.648;2024-02-28T14:01:19;14.77;;;12.25;;
51216;SDS011;37283;49.760;8.648;2024-02-28T14:03:46;13.05;;;11.43;;
51216;SDS011;37283;49.760;8.648;2024-02-28T14:06:12;16.85;;;11.55;;
51216;SDS011;37283;49.760;8.648;2024-02-28T14:08:40;13.38;;;11.35;;
51216;SDS011;37283;49.760;8.648;2024-02-28T14:11:09;12.60;;;10.77;;
51216;SDS011;37283;49.760;8.648;2024-02-28T14:13:36;14.10;;;10.75;;
51216;SDS011;37283;49.760;8.648;2024-02-28T14:16:04;13.75;;;11.60;;
51216;SDS011;37283;49.760;8.648;2024-02-28T14:18:30;13.88;;;12.27;;
51216;SDS011;37283;49.760;8.648;2024-02-28T14:20:57;15.40;;;12.57;;
51216;SDS011;37283;49.760;8.648;2024-02-28T14:23:24;12.82;;;11.20;;